createdAt,value
2024-04-04T00:00:52.038Z,1484.00
2024-04-04T00:01:51.981Z,1493.00
2024-04-04T00:02:51.998Z,1488.00
2024-04-04T00:03:52.024Z,1490.00
2024-04-04T00:04:52.044Z,1486.00
2024-04-04T00:05:52.008Z,1481.00
2024-04-04T00:06:52.085Z,1492.00
2024-04-04T00:07:52.119Z,1474.00
2024-04-04T00:08:52.230Z,1486.00
2024-04-04T00:09:52.374Z,1481.00
2024-04-04T00:10:52.431Z,1482.00
2024-04-04T00:11:52.522Z,1483.00
2024-04-04T00:12:52.658Z,1475.00
2024-04-04T00:13:52.716Z,1481.00
2024-04-04T00:14:52.813Z,1484.00
2024-04-04T00:15:52.964Z,1478.00
2024-04-04T00:16:53.013Z,1480.00
2024-04-04T00:17:53.119Z,1482.00
2024-04-04T00:18:53.230Z,1477.00
2024-04-04T00:19:53.300Z,1480.00
2024-04-04T00:20:53.405Z,1476.00
2024-04-04T00:21:53.528Z,1480.00
2024-04-04T00:22:53.593Z,1477.00
2024-04-04T00:23:53.707Z,1473.00
2024-04-04T00:24:53.837Z,1478.00
2024-04-04T00:25:53.912Z,1479.00
2024-04-04T00:27:01.616Z,1472.00
2024-04-04T00:27:55.042Z,1473.00
2024-04-04T00:28:54.005Z,1474.00
2024-04-04T00:29:54.010Z,1475.00
2024-04-04T00:30:54.072Z,1475.00
2024-04-04T00:31:54.022Z,1479.00
2024-04-04T00:32:54.023Z,1478.00
2024-04-04T00:33:54.048Z,1473.00
2024-04-04T00:34:54.022Z,1481.00
2024-04-04T00:35:54.020Z,1480.00
2024-04-04T00:36:54.063Z,1475.00
2024-04-04T00:37:54.038Z,1473.00
2024-04-04T00:38:54.142Z,1463.00
2024-04-04T00:39:54.290Z,1475.00
2024-04-04T00:40:54.338Z,1466.00
2024-04-04T00:41:54.434Z,1471.00
2024-04-04T00:42:54.593Z,1473.00
2024-04-04T00:43:54.654Z,1472.00
2024-04-04T00:44:54.758Z,1464.00
2024-04-04T00:45:54.869Z,1467.00
2024-04-04T00:46:54.947Z,1464.00
2024-04-04T00:47:55.054Z,1472.00
2024-04-04T00:48:55.209Z,1468.00
2024-04-04T00:49:55.246Z,1463.00
2024-04-04T00:50:55.347Z,1464.00
2024-04-04T00:51:55.469Z,1462.00
2024-04-04T00:52:55.557Z,1461.00
2024-04-04T00:53:55.666Z,1461.00
2024-04-04T00:54:55.811Z,1459.00
2024-04-04T00:55:55.887Z,1456.00
2024-04-04T00:56:55.961Z,1467.00
2024-04-04T00:57:56.115Z,1463.00
2024-04-04T00:58:56.179Z,1458.00
2024-04-04T00:59:56.293Z,1455.00
2024-04-04T01:00:56.460Z,1455.00
2024-04-04T01:01:56.489Z,1457.00
2024-04-04T01:02:56.587Z,1459.00
2024-04-04T01:03:56.746Z,1455.00
2024-04-04T01:04:56.781Z,1457.00
2024-04-04T01:05:56.894Z,1457.00
2024-04-04T01:06:57.029Z,1455.00
2024-04-04T01:07:57.074Z,1459.00
2024-04-04T01:08:57.178Z,1453.00
2024-04-04T01:09:57.291Z,1449.00
2024-04-04T01:10:57.391Z,1445.00
2024-04-04T01:11:57.496Z,1449.00
2024-04-04T01:12:57.658Z,1450.00
2024-04-04T01:13:57.726Z,1454.00
2024-04-04T01:14:57.797Z,1452.00
2024-04-04T01:15:57.922Z,1448.00
2024-04-04T01:16:58.004Z,1448.00
2024-04-04T01:17:58.115Z,1448.00
2024-04-04T01:18:58.198Z,1443.00
2024-04-04T01:19:58.310Z,1447.00
2024-04-04T01:20:58.424Z,1442.00
2024-04-04T01:21:58.526Z,1445.00
2024-04-04T01:22:58.677Z,1444.00
2024-04-04T01:23:58.747Z,1446.00
2024-04-04T01:24:58.858Z,1446.00
2024-04-04T01:25:58.950Z,1444.00
2024-04-04T01:26:59.059Z,1441.00
2024-04-04T01:27:59.169Z,1441.00
2024-04-04T01:28:59.276Z,1438.00
2024-04-04T01:29:59.400Z,1442.00
2024-04-04T01:30:59.498Z,1438.00
2024-04-04T01:31:59.620Z,1444.00
2024-04-04T01:32:59.693Z,1443.00
2024-04-04T01:33:59.806Z,1443.00
2024-04-04T01:34:59.903Z,1439.00
2024-04-04T01:36:00.018Z,1437.00
2024-04-04T01:37:00.119Z,1442.00
2024-04-04T01:38:00.231Z,1439.00
2024-04-04T01:39:00.380Z,1432.00
2024-04-04T01:40:00.438Z,1435.00
2024-04-04T01:41:00.533Z,1436.00
2024-04-04T01:42:00.633Z,1427.00
2024-04-04T01:43:00.744Z,1435.00
2024-04-04T01:44:00.852Z,1436.00
2024-04-04T01:45:00.954Z,1436.00
2024-04-04T01:46:01.052Z,1432.00
2024-04-04T01:47:01.167Z,1431.00
2024-04-04T01:48:01.272Z,1432.00
2024-04-04T01:49:01.369Z,1432.00
2024-04-04T01:50:01.470Z,1430.00
2024-04-04T01:51:01.567Z,1436.00
2024-04-04T01:52:01.668Z,1431.00
2024-04-04T01:53:01.771Z,1427.00
2024-04-04T01:54:01.874Z,1431.00
2024-04-04T01:55:01.958Z,1429.00
2024-04-04T01:56:02.092Z,1432.00
2024-04-04T01:57:02.174Z,1427.00
2024-04-04T01:58:02.275Z,1429.00
2024-04-04T01:59:02.377Z,1430.00
2024-04-04T02:00:02.471Z,1430.00
2024-04-04T02:01:02.577Z,1426.00
2024-04-04T02:02:02.684Z,1428.00
2024-04-04T02:03:02.795Z,1424.00
2024-04-04T02:04:02.902Z,1422.00
2024-04-04T02:05:03.008Z,1425.00
2024-04-04T02:06:03.139Z,1424.00
2024-04-04T02:07:03.184Z,1420.00
2024-04-04T02:08:03.297Z,1416.00
2024-04-04T02:09:03.389Z,1422.00
2024-04-04T02:10:03.505Z,1413.00
2024-04-04T02:11:03.607Z,1413.00
2024-04-04T02:12:03.697Z,1409.00
2024-04-04T02:13:03.801Z,1410.00
2024-04-04T02:14:03.898Z,1410.00
2024-04-04T02:15:03.996Z,1408.00
2024-04-04T02:16:04.112Z,1402.00
2024-04-04T02:17:04.204Z,1407.00
2024-04-04T02:18:04.294Z,1397.00
2024-04-04T02:19:04.393Z,1401.00
2024-04-04T02:20:04.507Z,1400.00
2024-04-04T02:21:04.614Z,1399.00
2024-04-04T02:22:04.689Z,1398.00
2024-04-04T02:23:04.854Z,1388.00
2024-04-04T02:24:04.905Z,1397.00
2024-04-04T02:25:05.022Z,1393.00
2024-04-04T02:26:05.120Z,1390.00
2024-04-04T02:27:05.222Z,1388.00
2024-04-04T02:28:05.318Z,1389.00
2024-04-04T02:29:05.434Z,1393.00
2024-04-04T02:30:05.504Z,1390.00
2024-04-04T02:31:05.607Z,1385.00
2024-04-04T02:32:05.729Z,1387.00
2024-04-04T02:33:05.805Z,1381.00
2024-04-04T02:34:05.911Z,1380.00
2024-04-04T02:35:06.010Z,1380.00
2024-04-04T02:36:06.111Z,1377.00
2024-04-04T02:37:06.207Z,1382.00
2024-04-04T02:38:06.298Z,1377.00
2024-04-04T02:39:06.411Z,1373.00
2024-04-04T02:40:06.507Z,1371.00
2024-04-04T02:41:06.599Z,1375.00
2024-04-04T02:42:06.700Z,1371.00
2024-04-04T02:43:06.782Z,1376.00
2024-04-04T02:44:06.923Z,1375.00
2024-04-04T02:45:07.009Z,1368.00
2024-04-04T02:46:07.096Z,1371.00
2024-04-04T02:47:07.184Z,1378.00
2024-04-04T02:48:07.288Z,1372.00
2024-04-04T02:49:07.370Z,1365.00
2024-04-04T02:50:07.467Z,1368.00
2024-04-04T02:51:07.584Z,1369.00
2024-04-04T02:52:07.665Z,1355.00
2024-04-04T02:53:07.740Z,1363.00
2024-04-04T02:54:07.844Z,1369.00
2024-04-04T02:55:07.944Z,1360.00
2024-04-04T02:56:08.032Z,1356.00
2024-04-04T02:57:08.202Z,1356.00
2024-04-04T02:58:08.255Z,1359.00
2024-04-04T02:59:08.309Z,1360.00
2024-04-04T03:00:08.398Z,1357.00
2024-04-04T03:01:08.501Z,1356.00
2024-04-04T03:02:08.602Z,1356.00
2024-04-04T03:03:08.688Z,1351.00
2024-04-04T03:04:08.793Z,1351.00
2024-04-04T03:05:08.876Z,1360.00
2024-04-04T03:06:08.982Z,1350.00
2024-04-04T03:07:09.075Z,1353.00
2024-04-04T03:08:09.165Z,1351.00
2024-04-04T03:09:09.274Z,1351.00
2024-04-04T03:10:09.387Z,1355.00
2024-04-04T03:11:09.569Z,1337.00
2024-04-04T03:12:09.580Z,1341.00
2024-04-04T03:13:09.678Z,1344.00
2024-04-04T03:14:09.777Z,1352.00
2024-04-04T03:15:09.857Z,1347.00
2024-04-04T03:16:09.968Z,1343.00
2024-04-04T03:17:10.045Z,1340.00
2024-04-04T03:18:10.155Z,1339.00
2024-04-04T03:19:10.253Z,1344.00
2024-04-04T03:20:10.344Z,1343.00
2024-04-04T03:21:10.422Z,1338.00
2024-04-04T03:22:10.513Z,1335.00
2024-04-04T03:23:10.618Z,1333.00
2024-04-04T03:24:10.716Z,1331.00
2024-04-04T03:25:10.841Z,1331.00
2024-04-04T03:26:10.921Z,1342.00
2024-04-04T03:27:11.017Z,1333.00
2024-04-04T03:28:11.105Z,1335.00
2024-04-04T03:29:11.195Z,1331.00
2024-04-04T03:30:11.289Z,1330.00
2024-04-04T03:31:11.391Z,1336.00
2024-04-04T03:32:11.518Z,1332.00
2024-04-04T03:33:12.540Z,1322.00
2024-04-04T03:34:11.595Z,1333.00
2024-04-04T03:35:11.634Z,1328.00
2024-04-04T03:36:11.645Z,1328.00
2024-04-04T03:37:11.669Z,1330.00
2024-04-04T03:38:11.705Z,1330.00
2024-04-04T03:39:11.752Z,1324.00
2024-04-04T03:40:11.843Z,1319.00
2024-04-04T03:41:11.945Z,1324.00
2024-04-04T03:42:12.021Z,1312.00
2024-04-04T03:43:12.351Z,1320.00
2024-04-04T03:44:12.201Z,1305.00
2024-04-04T03:45:12.307Z,1326.00
2024-04-04T03:46:12.406Z,1323.00
2024-04-04T03:47:12.508Z,1326.00
2024-04-04T03:48:12.611Z,1321.00
2024-04-04T03:49:12.712Z,1321.00
2024-04-04T03:50:12.800Z,1310.00
2024-04-04T03:51:12.995Z,1316.00
2024-04-04T03:52:13.006Z,1314.00
2024-04-04T03:53:13.076Z,1320.00
2024-04-04T03:54:13.183Z,1313.00
2024-04-04T03:55:13.269Z,1308.00
2024-04-04T03:56:13.394Z,1307.00
2024-04-04T03:57:13.482Z,1315.00
2024-04-04T03:58:13.599Z,1305.00
2024-04-04T03:59:13.688Z,1308.00
2024-04-04T04:00:13.794Z,1307.00
2024-04-04T04:01:13.885Z,1311.00
2024-04-04T04:02:13.971Z,1294.00
2024-04-04T04:03:14.073Z,1309.00
2024-04-04T04:04:14.180Z,1306.00
2024-04-04T04:05:14.260Z,1297.00
2024-04-04T04:06:14.364Z,1299.00
2024-04-04T04:07:14.444Z,1297.00
2024-04-04T04:08:14.544Z,1303.00
2024-04-04T04:09:14.700Z,1302.00
2024-04-04T04:10:14.734Z,1282.00
2024-04-04T04:11:14.844Z,1297.00
2024-04-04T04:12:14.955Z,1298.00
2024-04-04T04:13:15.025Z,1302.00
2024-04-04T04:14:15.128Z,1301.00
2024-04-04T04:15:15.240Z,1295.00
2024-04-04T04:16:15.323Z,1299.00
2024-04-04T04:17:15.427Z,1295.00
2024-04-04T04:18:15.536Z,1292.00
2024-04-04T04:19:15.642Z,1282.00
2024-04-04T04:20:15.732Z,1295.00
2024-04-04T04:21:15.827Z,1294.00
2024-04-04T04:22:15.899Z,1293.00
2024-04-04T04:23:16.006Z,1294.00
2024-04-04T04:24:16.111Z,1287.00
2024-04-04T04:25:16.191Z,1298.00
2024-04-04T04:26:16.309Z,1286.00
2024-04-04T04:27:16.374Z,1289.00
2024-04-04T04:28:16.480Z,1290.00
2024-04-04T04:29:16.575Z,1288.00
2024-04-04T04:30:16.682Z,1278.00
2024-04-04T04:31:16.771Z,1276.00
2024-04-04T04:32:16.858Z,1279.00
2024-04-04T04:33:16.966Z,1277.00
2024-04-04T04:34:17.051Z,1289.00
2024-04-04T04:35:17.150Z,1283.00
2024-04-04T04:36:17.258Z,1286.00
2024-04-04T04:37:17.358Z,1284.00
2024-04-04T04:38:17.440Z,1281.00
2024-04-04T04:39:17.551Z,1272.00
2024-04-04T04:40:17.646Z,1276.00
2024-04-04T04:41:17.752Z,1279.00
2024-04-04T04:42:17.842Z,1273.00
2024-04-04T04:43:17.952Z,1284.00
2024-04-04T04:44:18.051Z,1280.00
2024-04-04T04:45:18.164Z,1259.00
2024-04-04T04:46:18.243Z,1276.00
2024-04-04T04:47:25.698Z,600.00
2024-04-04T04:48:25.714Z,600.00
2024-04-04T04:49:25.742Z,600.00
2024-04-04T04:50:28.308Z,600.00
2024-04-04T04:51:25.885Z,600.00
2024-04-04T04:52:25.933Z,601.00
2024-04-04T04:53:25.964Z,602.00
2024-04-04T04:54:26.027Z,600.00
2024-04-04T04:55:26.039Z,605.00
2024-04-04T04:56:26.078Z,605.00
2024-04-04T04:57:26.098Z,601.00
2024-04-04T04:58:26.148Z,603.00
2024-04-04T04:59:26.183Z,603.00
2024-04-04T05:00:28.402Z,600.00
2024-04-04T05:01:26.229Z,607.00
2024-04-04T05:02:26.303Z,605.00
2024-04-04T05:03:26.301Z,607.00
2024-04-04T05:04:26.346Z,606.00
2024-04-04T05:05:26.427Z,600.00
2024-04-04T05:06:26.519Z,606.00
2024-04-04T05:07:26.591Z,608.00
2024-04-04T05:08:26.685Z,606.00
2024-04-04T05:09:26.760Z,610.00
2024-04-04T05:10:26.842Z,607.00
2024-04-04T05:11:26.922Z,606.00
2024-04-04T05:12:27.044Z,603.00
2024-04-04T05:13:27.131Z,602.00
2024-04-04T05:14:27.216Z,606.00
2024-04-04T05:15:27.286Z,608.00
2024-04-04T05:16:27.384Z,603.00
2024-04-04T05:17:27.518Z,611.00
2024-04-04T05:18:27.590Z,609.00
2024-04-04T05:19:27.657Z,607.00
2024-04-04T05:20:27.774Z,610.00
2024-04-04T05:21:27.871Z,611.00
2024-04-04T05:22:27.918Z,605.00
2024-04-04T05:23:28.010Z,603.00
2024-04-04T05:24:28.099Z,610.00
2024-04-04T05:25:28.205Z,611.00
2024-04-04T05:26:28.284Z,605.00
2024-04-04T05:27:28.352Z,606.00
2024-04-04T05:28:28.449Z,610.00
2024-04-04T05:29:28.555Z,610.00
2024-04-04T05:30:28.636Z,610.00
2024-04-04T05:31:28.723Z,607.00
2024-04-04T05:32:28.800Z,610.00
2024-04-04T05:33:28.897Z,610.00
2024-04-04T05:34:28.988Z,605.00
2024-04-04T05:35:29.060Z,611.00
2024-04-04T05:36:29.219Z,610.00
2024-04-04T05:37:29.233Z,609.00
2024-04-04T05:38:29.350Z,605.00
2024-04-04T05:39:29.422Z,608.00
2024-04-04T05:40:29.526Z,611.00
2024-04-04T05:41:29.625Z,611.00
2024-04-04T05:42:29.711Z,612.00
2024-04-04T05:43:29.814Z,615.00
2024-04-04T05:44:29.894Z,607.00
2024-04-04T05:45:30.006Z,611.00
2024-04-04T05:46:30.080Z,618.00
2024-04-04T05:47:30.219Z,617.00
2024-04-04T05:48:30.296Z,611.00
2024-04-04T05:49:30.376Z,624.00
2024-04-04T05:50:30.459Z,626.00
2024-04-04T05:51:30.535Z,624.00
2024-04-04T05:52:30.620Z,627.00
2024-04-04T05:53:30.705Z,617.00
2024-04-04T05:54:30.812Z,608.00
2024-04-04T05:55:30.864Z,606.00
2024-04-04T05:56:30.962Z,605.00
2024-04-04T05:57:31.037Z,606.00
2024-04-04T05:58:31.130Z,601.00
2024-04-04T05:59:31.224Z,601.00
2024-04-04T06:00:31.333Z,600.00
2024-04-04T06:01:31.472Z,607.00
2024-04-04T06:02:31.518Z,618.00
2024-04-04T06:03:31.613Z,622.00
2024-04-04T06:04:39.174Z,629.00
2024-04-04T06:05:32.698Z,629.00
2024-04-04T06:06:31.708Z,631.00
2024-04-04T06:07:31.742Z,637.00
2024-04-04T06:08:31.748Z,646.00
2024-04-04T06:09:32.724Z,630.00
2024-04-04T06:10:31.703Z,635.00
2024-04-04T06:11:31.724Z,647.00
2024-04-04T06:12:31.712Z,666.00
2024-04-04T06:13:31.720Z,751.00
2024-04-04T06:14:31.726Z,775.00
2024-04-04T06:15:31.750Z,812.00
2024-04-04T06:16:31.744Z,830.00
2024-04-04T06:17:31.781Z,852.00
2024-04-04T06:18:31.735Z,873.00
2024-04-04T06:19:31.855Z,902.00
2024-04-04T06:20:31.953Z,910.00
2024-04-04T06:21:32.057Z,947.00
2024-04-04T06:22:32.126Z,972.00
2024-04-04T06:23:32.205Z,977.00
2024-04-04T06:24:32.304Z,1003.00
2024-04-04T06:25:32.409Z,1036.00
2024-04-04T06:26:32.498Z,1056.00
2024-04-04T06:27:32.584Z,1068.00
2024-04-04T06:28:32.703Z,1108.00
2024-04-04T06:29:32.798Z,1115.00
2024-04-04T06:30:32.890Z,1138.00
2024-04-04T06:31:32.978Z,1156.00
2024-04-04T06:32:33.089Z,1171.00
2024-04-04T06:33:33.179Z,1195.00
2024-04-04T06:34:33.278Z,1232.00
2024-04-04T06:35:33.377Z,1250.00
2024-04-04T06:36:33.456Z,1259.00
2024-04-04T06:37:33.556Z,1279.00
2024-04-04T06:38:33.672Z,1305.00
2024-04-04T06:39:33.742Z,1321.00
2024-04-04T06:40:33.844Z,1274.00
2024-04-04T06:41:33.948Z,1176.00
2024-04-04T06:42:34.037Z,1109.00
2024-04-04T06:43:34.176Z,1076.00
2024-04-04T06:44:34.219Z,1049.00
2024-04-04T06:45:34.288Z,1071.00
2024-04-04T06:46:34.374Z,1103.00
2024-04-04T06:47:34.436Z,1124.00
2024-04-04T06:48:36.648Z,1116.00
2024-04-04T06:49:34.513Z,1105.00
2024-04-04T06:50:34.617Z,1119.00
2024-04-04T06:51:34.573Z,1128.00
2024-04-04T06:52:34.601Z,1128.00
2024-04-04T06:53:34.628Z,1140.00
2024-04-04T06:54:34.658Z,1143.00
2024-04-04T06:55:34.699Z,1142.00
2024-04-04T06:56:34.744Z,1142.00
2024-04-04T06:57:34.820Z,1148.00
2024-04-04T06:58:34.851Z,1149.00
2024-04-04T06:59:34.892Z,1144.00
2024-04-04T07:00:34.946Z,1152.00
2024-04-04T07:01:36.477Z,1149.00
2024-04-04T07:02:35.070Z,1157.00
2024-04-04T07:03:35.129Z,1147.00
2024-04-04T07:04:35.186Z,1163.00
2024-04-04T07:05:35.236Z,1174.00
2024-04-04T07:06:35.296Z,1187.00
2024-04-04T07:07:35.345Z,1183.00
2024-04-04T07:08:35.429Z,1193.00
2024-04-04T07:09:35.454Z,1205.00
2024-04-04T07:10:35.528Z,1207.00
2024-04-04T07:11:35.604Z,1225.00
2024-04-04T07:12:35.711Z,1237.00
2024-04-04T07:13:35.863Z,1249.00
2024-04-04T07:14:35.914Z,1253.00
2024-04-04T07:15:36.003Z,1257.00
2024-04-04T07:16:36.105Z,1282.00
2024-04-04T07:17:36.215Z,1280.00
2024-04-04T07:18:36.335Z,1294.00
2024-04-04T07:19:36.404Z,1319.00
2024-04-04T07:20:36.547Z,1332.00
2024-04-04T07:21:36.622Z,1347.00
2024-04-04T07:22:36.723Z,1351.00
2024-04-04T07:23:36.805Z,1351.00
2024-04-04T07:24:36.913Z,1347.00
2024-04-04T07:25:37.017Z,1349.00
2024-04-04T07:26:37.129Z,1325.00
2024-04-04T07:27:37.222Z,1303.00
2024-04-04T07:28:37.338Z,1293.00
2024-04-04T07:29:37.441Z,1264.00
2024-04-04T07:30:37.547Z,1252.00
2024-04-04T07:31:37.667Z,1213.00
2024-04-04T07:32:37.846Z,1169.00
2024-04-04T07:33:37.888Z,1139.00
2024-04-04T07:34:37.997Z,1112.00
2024-04-04T07:35:38.104Z,1078.00
2024-04-04T07:36:38.269Z,1047.00
2024-04-04T07:37:38.360Z,1006.00
2024-04-04T07:38:38.437Z,977.00
2024-04-04T07:39:38.530Z,960.00
2024-04-04T07:40:38.648Z,940.00
2024-04-04T07:41:38.765Z,917.00
2024-04-04T07:42:38.871Z,891.00
2024-04-04T07:43:38.999Z,869.00
2024-04-04T07:44:39.075Z,855.00
2024-04-04T07:45:39.201Z,823.00
2024-04-04T07:46:40.999Z,823.00
2024-04-04T07:47:39.532Z,806.00
2024-04-04T07:48:39.589Z,794.00
2024-04-04T07:49:39.634Z,751.00
2024-04-04T07:50:39.680Z,754.00
2024-04-04T07:51:39.721Z,722.00
2024-04-04T07:52:39.772Z,690.00
2024-04-04T07:53:39.824Z,666.00
2024-04-04T07:54:39.841Z,658.00
2024-04-04T07:55:39.874Z,647.00
2024-04-04T07:56:39.923Z,638.00
2024-04-04T07:57:39.951Z,632.00
2024-04-04T07:58:40.005Z,623.00
2024-04-04T07:59:40.114Z,620.00
2024-04-04T08:00:40.229Z,603.00
2024-04-04T08:01:40.303Z,600.00
2024-04-04T08:02:40.397Z,600.00
2024-04-04T08:03:40.480Z,600.00
2024-04-04T08:04:40.593Z,600.00
2024-04-04T08:05:40.659Z,601.00
2024-04-04T08:06:40.755Z,600.00
2024-04-04T08:07:40.836Z,600.00
2024-04-04T08:08:40.887Z,601.00
2024-04-04T08:09:40.966Z,602.00
2024-04-04T08:10:41.054Z,600.00
2024-04-04T08:11:41.122Z,599.00
2024-04-04T08:12:41.194Z,601.00
2024-04-04T08:13:41.268Z,603.00
2024-04-04T08:14:41.335Z,603.00
2024-04-04T08:15:41.384Z,606.00
2024-04-04T08:16:41.482Z,604.00
2024-04-04T08:17:41.542Z,603.00
2024-04-04T08:18:41.605Z,600.00
2024-04-04T08:19:41.658Z,602.00
2024-04-04T08:20:41.722Z,602.00
2024-04-04T08:21:41.807Z,601.00
2024-04-04T08:22:41.873Z,600.00
2024-04-04T08:23:41.954Z,600.00
2024-04-04T08:24:42.018Z,602.00
2024-04-04T08:25:42.088Z,600.00
2024-04-04T08:26:42.169Z,603.00
2024-04-04T08:27:42.247Z,600.00
2024-04-04T08:28:42.314Z,600.00
2024-04-04T08:29:42.399Z,600.00
2024-04-04T08:30:42.479Z,603.00
2024-04-04T08:31:42.548Z,601.00
2024-04-04T08:32:42.624Z,600.00
2024-04-04T08:33:42.691Z,601.00
2024-04-04T08:34:42.777Z,601.00
2024-04-04T08:35:42.853Z,600.00
2024-04-04T08:36:42.921Z,601.00
2024-04-04T08:37:42.993Z,600.00
2024-04-04T08:38:43.067Z,600.00
2024-04-04T08:39:43.139Z,602.00
2024-04-04T08:40:43.223Z,603.00
2024-04-04T08:41:43.298Z,602.00
2024-04-04T08:42:43.376Z,603.00
2024-04-04T08:43:43.449Z,601.00
2024-04-04T08:44:43.540Z,600.00
2024-04-04T08:45:43.592Z,602.00
2024-04-04T08:46:43.673Z,601.00
2024-04-04T08:47:43.752Z,601.00
2024-04-04T08:48:43.856Z,602.00
2024-04-04T08:49:43.886Z,602.00
2024-04-04T08:50:49.365Z,613.00
2024-04-04T08:51:44.991Z,614.00
2024-04-04T08:52:43.984Z,614.00
2024-04-04T08:53:43.984Z,617.00
2024-04-04T08:54:43.992Z,622.00
2024-04-04T08:55:44.000Z,637.00
2024-04-04T08:56:44.019Z,649.00
2024-04-04T08:57:44.024Z,659.00
2024-04-04T08:58:44.024Z,669.00
2024-04-04T08:59:44.002Z,697.00
2024-04-04T09:00:44.036Z,722.00
2024-04-04T09:01:44.049Z,751.00
2024-04-04T09:02:44.132Z,785.00
2024-04-04T09:03:44.234Z,802.00
2024-04-04T09:04:44.344Z,826.00
2024-04-04T09:05:44.459Z,857.00
2024-04-04T09:06:44.592Z,873.00
2024-04-04T09:07:44.711Z,904.00
2024-04-04T09:08:44.886Z,926.00
2024-04-04T09:09:44.960Z,951.00
2024-04-04T09:10:45.102Z,980.00
2024-04-04T09:11:45.194Z,1010.00
2024-04-04T09:12:45.290Z,1049.00
2024-04-04T09:13:46.271Z,1071.00
2024-04-04T09:14:45.471Z,1098.00
2024-04-04T09:15:45.500Z,1120.00
2024-04-04T09:16:45.551Z,1133.00
2024-04-04T09:17:45.556Z,1153.00
2024-04-04T09:18:45.606Z,1188.00
2024-04-04T09:19:47.285Z,1202.00
2024-04-04T09:20:45.673Z,1207.00
2024-04-04T09:21:45.716Z,1239.00
2024-04-04T09:22:45.744Z,1262.00
2024-04-04T09:23:45.777Z,1274.00
2024-04-04T09:24:56.914Z,1300.00
2024-04-04T09:25:46.806Z,1301.00
2024-04-04T09:26:45.827Z,1306.00
2024-04-04T09:27:45.854Z,1324.00
2024-04-04T09:28:45.822Z,1355.00
2024-04-04T09:29:45.830Z,1407.00
2024-04-04T09:30:45.825Z,1424.00
2024-04-04T09:31:45.820Z,1448.00
2024-04-04T09:32:45.903Z,1454.00
2024-04-04T09:33:45.860Z,1460.00
2024-04-04T09:34:45.868Z,1475.00
2024-04-04T09:35:45.887Z,1500.00
2024-04-04T09:36:45.940Z,1506.00
2024-04-04T09:37:45.867Z,1515.00
2024-04-04T09:38:45.867Z,1536.00
2024-04-04T09:39:45.935Z,1545.00
2024-04-04T09:40:46.070Z,1557.00
2024-04-04T09:41:46.079Z,1561.00
2024-04-04T09:42:46.161Z,1571.00
2024-04-04T09:43:46.232Z,1590.00
2024-04-04T09:44:46.335Z,1604.00
2024-04-04T09:45:46.388Z,1615.00
2024-04-04T09:46:46.472Z,1633.00
2024-04-04T09:47:46.531Z,1646.00
2024-04-04T09:48:46.629Z,1673.00
2024-04-04T09:49:46.696Z,1690.00
2024-04-04T09:50:46.776Z,1705.00
2024-04-04T09:51:46.890Z,1670.00
2024-04-04T09:52:46.941Z,1511.00
2024-04-04T09:53:47.049Z,1348.00
2024-04-04T09:54:47.136Z,1144.00
2024-04-04T09:55:47.343Z,1051.00
2024-04-04T09:56:47.375Z,968.00
2024-04-04T09:57:47.544Z,871.00
2024-04-04T09:58:47.606Z,812.00
2024-04-04T09:59:47.708Z,734.00
2024-04-04T10:00:47.840Z,651.00
2024-04-04T10:01:47.960Z,639.00
2024-04-04T10:02:48.076Z,629.00
2024-04-04T10:03:48.214Z,625.00
2024-04-04T10:04:48.318Z,644.00
2024-04-04T10:05:48.426Z,666.00
2024-04-04T10:06:51.152Z,701.00
2024-04-04T10:07:48.779Z,772.00
2024-04-04T10:08:48.899Z,797.00
2024-04-04T10:09:48.897Z,827.00
2024-04-04T10:10:49.010Z,847.00
2024-04-04T10:11:48.982Z,868.00
2024-04-04T10:12:49.021Z,902.00
2024-04-04T10:13:49.052Z,926.00
2024-04-04T10:14:49.082Z,935.00
2024-04-04T10:15:49.121Z,928.00
2024-04-04T10:16:49.161Z,909.00
2024-04-04T10:17:49.205Z,910.00
2024-04-04T10:18:49.212Z,928.00
2024-04-04T10:19:49.279Z,932.00
2024-04-04T10:20:49.323Z,925.00
2024-04-04T10:21:49.362Z,944.00
2024-04-04T10:22:50.385Z,957.00
2024-04-04T10:23:49.454Z,979.00
2024-04-04T10:24:49.519Z,964.00
2024-04-04T10:25:49.517Z,966.00
2024-04-04T10:26:49.516Z,993.00
2024-04-04T10:27:49.538Z,992.00
2024-04-04T10:28:49.569Z,989.00
2024-04-04T10:29:53.817Z,995.00
2024-04-04T10:30:49.584Z,996.00
2024-04-04T10:31:49.600Z,988.00
2024-04-04T10:32:49.677Z,962.00
2024-04-04T10:33:49.598Z,978.00
2024-04-04T10:34:49.583Z,989.00
2024-04-04T10:35:49.591Z,975.00
2024-04-04T10:36:49.610Z,1000.00
2024-04-04T10:37:49.597Z,1032.00
2024-04-04T10:38:49.604Z,1036.00
2024-04-04T10:39:49.978Z,1045.00
2024-04-04T10:40:49.593Z,1043.00
2024-04-04T10:41:49.608Z,1076.00
2024-04-04T10:42:49.597Z,1077.00
2024-04-04T10:43:49.618Z,1088.00
2024-04-04T10:44:49.638Z,1082.00
2024-04-04T10:45:49.614Z,1101.00
2024-04-04T10:46:49.597Z,1112.00
2024-04-04T10:47:49.614Z,1115.00
2024-04-04T10:48:49.619Z,1071.00
2024-04-04T10:49:49.627Z,1064.00
2024-04-04T10:50:49.626Z,1049.00
2024-04-04T10:51:49.618Z,1068.00
2024-04-04T10:52:49.604Z,1063.00
2024-04-04T10:53:49.606Z,1031.00
2024-04-04T10:54:49.622Z,1038.00
2024-04-04T10:55:49.615Z,1031.00
2024-04-04T10:56:49.623Z,1015.00
2024-04-04T10:57:49.640Z,1014.00
2024-04-04T10:58:50.003Z,987.00
2024-04-04T10:59:49.627Z,968.00
2024-04-04T11:00:49.651Z,931.00
2024-04-04T11:01:49.750Z,898.00
2024-04-04T11:02:49.795Z,895.00
2024-04-04T11:03:49.923Z,877.00
2024-04-04T11:04:50.759Z,869.00
2024-04-04T11:05:49.966Z,863.00
2024-04-04T11:06:50.026Z,877.00
2024-04-04T11:07:50.030Z,869.00
2024-04-04T11:08:50.197Z,875.00
2024-04-04T11:09:50.077Z,877.00
2024-04-04T11:10:50.979Z,878.00
2024-04-04T11:11:50.145Z,861.00
2024-04-04T11:12:50.166Z,858.00
2024-04-04T11:13:50.184Z,861.00
2024-04-04T11:14:50.217Z,851.00
2024-04-04T11:15:50.269Z,837.00
2024-04-04T11:16:50.271Z,834.00
2024-04-04T11:17:50.305Z,850.00
2024-04-04T11:18:51.215Z,875.00
2024-04-04T11:19:50.356Z,885.00
2024-04-04T11:20:50.371Z,895.00
2024-04-04T11:21:50.406Z,899.00
2024-04-04T11:22:50.449Z,917.00
2024-04-04T11:23:50.527Z,940.00
2024-04-04T11:24:50.596Z,943.00
2024-04-04T11:25:50.677Z,950.00
2024-04-04T11:26:50.750Z,962.00
2024-04-04T11:27:50.822Z,952.00
2024-04-04T11:28:57.171Z,968.00
2024-04-04T11:29:51.899Z,968.00
2024-04-04T11:30:51.896Z,971.00
2024-04-04T11:31:50.926Z,977.00
2024-04-04T11:32:50.935Z,989.00
2024-04-04T11:33:50.916Z,1018.00
2024-04-04T11:34:50.905Z,1036.00
2024-04-04T11:35:50.921Z,1033.00
2024-04-04T11:36:52.662Z,1058.00
2024-04-04T11:37:50.920Z,1032.00
2024-04-04T11:38:50.902Z,1014.00
2024-04-04T11:39:50.910Z,1026.00
2024-04-04T11:40:50.917Z,1056.00
2024-04-04T11:41:50.928Z,1066.00
2024-04-04T11:42:52.447Z,1086.00
2024-04-04T11:43:50.944Z,1088.00
2024-04-04T11:44:50.978Z,1105.00
2024-04-04T11:45:51.013Z,1122.00
2024-04-04T11:46:51.053Z,1131.00
2024-04-04T11:47:51.092Z,1144.00
2024-04-04T11:48:52.716Z,1153.00
2024-04-04T11:49:51.180Z,1172.00
2024-04-04T11:50:51.192Z,1164.00
2024-04-04T11:51:51.254Z,1171.00
2024-04-04T11:52:51.276Z,1191.00
2024-04-04T11:53:51.331Z,1187.00
2024-04-04T11:54:51.384Z,1198.00
2024-04-04T11:55:51.401Z,1209.00
2024-04-04T11:56:51.456Z,1212.00
2024-04-04T11:57:51.539Z,1236.00
2024-04-04T11:58:51.623Z,1243.00
2024-04-04T11:59:51.724Z,1238.00
2024-04-04T12:00:51.828Z,1251.00
2024-04-04T12:01:51.928Z,1251.00
2024-04-04T12:02:52.087Z,1265.00
2024-04-04T12:03:52.123Z,1267.00
2024-04-04T12:04:52.235Z,1280.00
2024-04-04T12:05:52.332Z,1272.00
2024-04-04T12:06:52.414Z,1266.00
2024-04-04T12:07:52.534Z,1288.00
2024-04-04T12:08:52.644Z,1287.00
2024-04-04T12:09:52.761Z,1299.00
2024-04-04T12:10:52.912Z,1297.00
2024-04-04T12:11:52.967Z,1297.00
2024-04-04T12:12:53.067Z,1305.00
2024-04-04T12:13:53.183Z,1306.00
2024-04-04T12:14:53.302Z,1315.00